createdAt,value
2023-04-09T00:02:14.530Z,100595.75
2023-04-09T00:04:47.694Z,100596.66
2023-04-09T00:07:16.726Z,100596.31
2023-04-09T00:09:46.263Z,100598.91
2023-04-09T00:12:16.152Z,100599.44
2023-04-09T00:14:45.130Z,100603.66
2023-04-09T00:17:14.319Z,100606.59
2023-04-09T00:19:44.715Z,100600.88
2023-04-09T00:22:13.808Z,100598.66
2023-04-09T00:24:42.950Z,100607.06
2023-04-09T00:27:12.136Z,100605.19
2023-04-09T00:29:41.458Z,100603.19
2023-04-09T00:32:10.758Z,100609.81
2023-04-09T00:34:40.379Z,100605.75
2023-04-09T00:37:11.014Z,100611.78
2023-04-09T00:39:40.535Z,100613.06
2023-04-09T00:42:09.711Z,100613.63
2023-04-09T00:44:39.002Z,100603.13
2023-04-09T00:47:13.087Z,100609.34
2023-04-09T00:49:44.766Z,100600.66
2023-04-09T00:52:15.764Z,100611.13
2023-04-09T00:54:44.907Z,100608.53
2023-04-09T00:57:16.150Z,100616.25
2023-04-09T00:59:46.365Z,100609.81
2023-04-09T01:02:15.927Z,100606.66
2023-04-09T01:04:45.577Z,100610.47
2023-04-09T01:07:23.254Z,100609.91
2023-04-09T01:09:59.129Z,100608.78
2023-04-09T01:12:35.500Z,100606.38
2023-04-09T01:15:07.778Z,100607.47
2023-04-09T01:17:42.073Z,100609.84
2023-04-09T01:20:16.103Z,100613.47
2023-04-09T01:22:59.162Z,100611.09
2023-04-09T01:25:41.324Z,100614.09
2023-04-09T01:28:19.022Z,100604.13
2023-04-09T01:30:52.359Z,100613.59
2023-04-09T01:33:23.477Z,100614.09
2023-04-09T01:35:55.267Z,100610.59
2023-04-09T01:38:25.483Z,100606.72
2023-04-09T01:40:57.022Z,100608.44
2023-04-09T01:43:29.483Z,100615.06
2023-04-09T01:46:00.796Z,100604.47
2023-04-09T01:48:31.945Z,100614.44
2023-04-09T01:51:02.980Z,100612.78
2023-04-09T01:53:33.112Z,100604.88
2023-04-09T01:56:03.867Z,100603.28
2023-04-09T01:58:36.116Z,100611.03
2023-04-09T02:01:14.397Z,100615.31
2023-04-09T02:03:48.639Z,100615.38
2023-04-09T02:06:28.289Z,100609.53
2023-04-09T02:09:02.093Z,100605.81
2023-04-09T02:11:38.957Z,100605.81
2023-04-09T02:14:11.502Z,100601.03
2023-04-09T02:17:04.974Z,100604.75
2023-04-09T02:19:45.420Z,100602.34
2023-04-09T02:22:16.590Z,100610.25
2023-04-09T02:24:48.969Z,100594.28
2023-04-09T02:27:19.974Z,100599.25
2023-04-09T02:29:50.605Z,100596.66
2023-04-09T02:32:20.107Z,100597.72
2023-04-09T02:34:49.385Z,100596.28
2023-04-09T02:37:18.637Z,100598.13
2023-04-09T02:39:49.452Z,100598.13
2023-04-09T02:42:18.545Z,100601.63
2023-04-09T02:44:47.635Z,100602.56
2023-04-09T02:47:19.298Z,100592.66
2023-04-09T02:49:48.601Z,100597.44
2023-04-09T02:52:20.413Z,100597.84
2023-04-09T02:54:52.456Z,100600.41
2023-04-09T02:57:21.687Z,100598.97
2023-04-09T02:59:50.841Z,100598.22
2023-04-09T03:02:22.975Z,100597.88
2023-04-09T03:04:53.222Z,100606.00
2023-04-09T03:07:24.400Z,100601.00
2023-04-09T03:09:53.454Z,100605.06
2023-04-09T03:12:22.848Z,100604.75
2023-04-09T03:14:52.245Z,100603.63
2023-04-09T03:17:27.368Z,100616.38
2023-04-09T03:19:57.967Z,100604.78
2023-04-09T03:22:38.176Z,100609.97
2023-04-09T03:25:14.287Z,100608.34
2023-04-09T03:27:44.025Z,100608.34
2023-04-09T03:30:16.057Z,100602.06
2023-04-09T03:32:52.664Z,100615.53
2023-04-09T03:35:24.974Z,100613.13
2023-04-09T03:38:00.738Z,100608.34
2023-04-09T03:43:20.786Z,100610.72
2023-04-09T03:45:56.362Z,100606.69
2023-04-09T03:48:33.156Z,100604.25
2023-04-09T03:51:03.461Z,100606.81
2023-04-09T03:53:42.266Z,100602.91
2023-04-09T03:56:12.637Z,100607.88
2023-04-09T03:58:43.123Z,100612.66
2023-04-09T04:01:15.959Z,100605.13
2023-04-09T04:03:57.513Z,100614.31
2023-04-09T04:06:31.454Z,100607.06
2023-04-09T04:09:30.242Z,100606.63
2023-04-09T04:12:07.622Z,100606.72
2023-04-09T04:14:51.754Z,100607.50
2023-04-09T04:17:27.721Z,100607.47
2023-04-09T04:20:55.250Z,100596.75
2023-04-09T04:23:31.551Z,100595.91
2023-04-09T04:26:13.572Z,100595.50
2023-04-09T04:28:43.795Z,100595.16
2023-04-09T04:31:20.744Z,100595.56
2023-04-09T04:33:56.996Z,100591.53
2023-04-09T04:39:44.487Z,100593.78
2023-04-09T04:46:25.459Z,100590.50
2023-04-09T04:48:58.408Z,100593.81
2023-04-09T04:51:32.851Z,100588.59
2023-04-09T04:54:14.015Z,100589.72
2023-04-09T04:56:54.776Z,100594.25
2023-04-09T04:59:44.782Z,100589.31
2023-04-09T05:06:47.375Z,100585.22
2023-04-09T05:10:03.870Z,100587.31
2023-04-09T05:12:50.720Z,100593.88
2023-04-09T05:15:36.503Z,100591.25
2023-04-09T05:18:10.771Z,100592.31
2023-04-09T05:20:43.643Z,100582.94
2023-04-09T05:23:36.529Z,100596.09
2023-04-09T05:26:12.020Z,100597.34
2023-04-09T05:29:02.234Z,100597.78
2023-04-09T05:31:57.970Z,100589.22
2023-04-09T05:51:59.424Z,100601.63
2023-04-09T06:05:26.916Z,100597.94
2023-04-09T06:27:26.154Z,100615.16
2023-04-09T06:31:06.989Z,100610.34
2023-04-09T06:38:44.768Z,100607.53
2023-04-09T06:42:20.308Z,100606.06
2023-04-09T06:45:26.748Z,100614.19
2023-04-09T06:47:58.671Z,100613.00
2023-04-09T06:50:28.400Z,100606.59
2023-04-09T06:52:58.793Z,100601.59
2023-04-09T06:55:29.936Z,100605.81
2023-04-09T06:58:00.015Z,100603.59
2023-04-09T07:00:29.752Z,100613.41
2023-04-09T07:02:59.240Z,100612.50
2023-04-09T07:05:29.306Z,100615.22
2023-04-09T07:07:58.634Z,100606.31
2023-04-09T07:10:29.672Z,100615.06
2023-04-09T07:12:59.695Z,100615.88
2023-04-09T07:15:29.486Z,100616.03
2023-04-09T07:17:58.981Z,100626.53
2023-04-09T07:20:29.218Z,100621.66
2023-04-09T07:23:00.031Z,100624.06
2023-04-09T07:25:30.767Z,100619.63
2023-04-09T07:27:59.967Z,100612.16
2023-04-09T07:30:29.652Z,100624.72
2023-04-09T07:33:02.816Z,100622.31
2023-04-09T07:35:50.626Z,100619.88
2023-04-09T07:38:19.974Z,100624.28
2023-04-09T07:40:50.870Z,100619.25
2023-04-09T07:43:21.476Z,100619.78
2023-04-09T07:45:52.757Z,100625.22
2023-04-09T07:48:23.027Z,100625.50
2023-04-09T07:50:53.120Z,100623.00
2023-04-09T07:53:22.781Z,100625.56
2023-04-09T07:55:53.952Z,100624.66
2023-04-09T07:58:23.463Z,100624.19
2023-04-09T08:00:52.833Z,100626.00
2023-04-09T08:03:23.116Z,100624.09
2023-04-09T08:05:53.658Z,100622.25
2023-04-09T08:08:24.317Z,100623.19
2023-04-09T08:11:25.500Z,100630.19
2023-04-09T08:13:55.082Z,100624.22
2023-04-09T08:16:25.588Z,100618.63
2023-04-09T08:18:55.961Z,100619.97
2023-04-09T08:21:27.320Z,100618.00
2023-04-09T08:24:01.603Z,100613.78
2023-04-09T08:26:32.922Z,100611.19
2023-04-09T08:29:02.960Z,100612.09
2023-04-09T08:31:51.435Z,100595.63
2023-04-09T08:34:23.734Z,100617.66
2023-04-09T08:36:53.353Z,100609.28
2023-04-09T08:39:23.915Z,100604.75
2023-04-09T08:42:00.367Z,100601.16
2023-04-09T08:44:31.591Z,100602.38
2023-04-09T08:47:02.077Z,100599.84
2023-04-09T08:49:34.045Z,100607.00
2023-04-09T08:52:03.863Z,100597.19
2023-04-09T08:54:34.673Z,100594.31
2023-04-09T08:57:08.325Z,100592.47
2023-04-09T08:59:38.506Z,100592.66
2023-04-09T09:02:10.927Z,100593.75
2023-04-09T09:04:55.503Z,100594.78
2023-04-09T09:07:25.222Z,100588.25
2023-04-09T09:09:59.971Z,100589.72
2023-04-09T09:12:41.157Z,100587.63
2023-04-09T09:15:30.718Z,100590.13
2023-04-09T09:18:02.025Z,100590.16
2023-04-09T09:20:32.271Z,100595.63
2023-04-09T09:23:01.952Z,100583.22
2023-04-09T09:25:32.661Z,100584.63
2023-04-09T09:28:19.736Z,100576.13
2023-04-09T09:30:49.555Z,100584.13
2023-04-09T09:33:19.819Z,100573.84
2023-04-09T09:35:50.791Z,100562.75
2023-04-09T09:38:20.854Z,100578.44
2023-04-09T09:40:52.835Z,100570.97
2023-04-09T09:43:24.894Z,100574.28
2023-04-09T09:45:56.797Z,100561.72
2023-04-09T09:48:28.545Z,100565.34
2023-04-09T09:50:59.348Z,100561.03
2023-04-09T09:53:31.926Z,100563.09
2023-04-09T09:56:02.919Z,100563.09
2023-04-09T09:58:56.467Z,100561.13
2023-04-09T10:01:30.099Z,100559.31
2023-04-09T10:04:03.761Z,100556.09
2023-04-09T10:06:35.974Z,100561.13
2023-04-09T10:09:09.818Z,100545.41
2023-04-09T10:11:42.695Z,100555.88
2023-04-09T10:14:15.493Z,100555.25
2023-04-09T10:16:45.295Z,100556.34
2023-04-09T10:19:16.609Z,100555.25
2023-04-09T10:21:54.929Z,100545.47
2023-04-09T10:24:25.489Z,100544.91
2023-04-09T10:27:00.324Z,100541.25
2023-04-09T10:29:31.657Z,100542.59
2023-04-09T10:32:07.519Z,100540.84
2023-04-09T10:34:39.715Z,100543.03
2023-04-09T10:37:11.403Z,100537.44
2023-04-09T10:39:45.983Z,100533.78
2023-04-09T10:42:17.278Z,100539.50
2023-04-09T10:44:48.413Z,100534.53
2023-04-09T10:47:34.904Z,100531.06
2023-04-09T10:50:30.768Z,100537.28
2023-04-09T10:53:00.957Z,100537.56
2023-04-09T10:55:37.702Z,100535.97
2023-04-09T10:58:09.739Z,100540.81
2023-04-09T11:00:44.073Z,100540.41
2023-04-09T11:03:31.653Z,100542.22
2023-04-09T11:06:06.251Z,100553.16
2023-04-09T11:08:36.733Z,100532.56
2023-04-09T11:11:06.905Z,100539.66
2023-04-09T11:13:36.795Z,100539.03
2023-04-09T11:16:08.173Z,100539.38
2023-04-09T11:18:38.323Z,100541.44
2023-04-09T11:21:28.184Z,100541.91
2023-04-09T11:24:02.707Z,100528.25
2023-04-09T11:26:37.758Z,100529.75
2023-04-09T11:29:08.451Z,100534.66
2023-04-09T11:31:46.403Z,100537.81
2023-04-09T11:34:34.442Z,100539.72
2023-04-09T11:37:09.765Z,100543.34
2023-04-09T11:39:41.293Z,100530.94
2023-04-09T11:42:17.525Z,100530.59
2023-04-09T11:45:08.480Z,100532.00
2023-04-09T11:47:43.232Z,100525.91
2023-04-09T11:50:23.047Z,100521.50
2023-04-09T11:52:59.136Z,100522.22
2023-04-09T11:55:32.532Z,100511.75
2023-04-09T11:58:03.814Z,100517.00
2023-04-09T12:00:35.306Z,100513.44
2023-04-09T12:03:09.258Z,100513.69
2023-04-09T12:05:41.682Z,100514.34
2023-04-09T12:08:13.376Z,100500.69
2023-04-09T12:10:44.050Z,100507.75
2023-04-09T12:13:14.720Z,100502.63
2023-04-09T12:15:45.846Z,100505.94
2023-04-09T12:18:16.786Z,100505.09
2023-04-09T12:21:06.623Z,100502.16
2023-04-09T12:23:36.814Z,100504.88
2023-04-09T12:26:06.888Z,100497.28
2023-04-09T12:28:36.588Z,100495.69
2023-04-09T12:31:06.310Z,100493.75
2023-04-09T12:33:39.290Z,100499.56
2023-04-09T12:36:08.944Z,100491.78
2023-04-09T12:38:38.629Z,100502.59
2023-04-09T12:41:08.216Z,100491.22
2023-04-09T12:43:37.541Z,100491.31
2023-04-09T12:46:08.959Z,100495.44
2023-04-09T12:49:00.118Z,100485.06
2023-04-09T12:51:34.508Z,100493.06
2023-04-09T12:54:23.666Z,100490.34
2023-04-09T12:57:14.104Z,100481.06
2023-04-09T12:59:43.421Z,100490.34
2023-04-09T13:02:33.508Z,100487.47
2023-04-09T13:05:04.666Z,100488.78
2023-04-09T13:07:34.182Z,100487.63
2023-04-09T13:10:23.472Z,100489.44
2023-04-09T13:12:55.759Z,100487.38
2023-04-09T13:15:45.401Z,100484.84
2023-04-09T13:18:34.710Z,100476.78
2023-04-09T13:21:24.068Z,100482.31
2023-04-09T13:23:53.096Z,100481.78
2023-04-09T13:26:25.563Z,100483.38
2023-04-09T13:29:08.472Z,100485.09
2023-04-09T13:31:38.212Z,100481.22
2023-04-09T13:34:25.999Z,100484.84
2023-04-09T13:36:56.787Z,100473.06
2023-04-09T13:39:28.958Z,100478.31
2023-04-09T13:42:18.301Z,100478.00
2023-04-09T13:45:07.442Z,100482.13
2023-04-09T13:47:55.544Z,100479.56
2023-04-09T13:50:43.567Z,100472.72
2023-04-09T13:53:52.648Z,100476.47
2023-04-09T13:56:41.725Z,100476.38
2023-04-09T13:59:30.194Z,100475.56
2023-04-09T14:02:02.356Z,100483.06
2023-04-09T14:04:31.826Z,100475.50
2023-04-09T14:07:01.520Z,100473.75
2023-04-09T14:09:32.450Z,100472.22
2023-04-09T14:12:02.966Z,100466.97
2023-04-09T14:14:32.389Z,100459.28
2023-04-09T14:17:02.234Z,100464.78
2023-04-09T14:19:31.579Z,100465.00
2023-04-09T14:22:01.057Z,100464.78
2023-04-09T14:24:34.712Z,100460.16
2023-04-09T14:27:04.991Z,100456.78
2023-04-09T14:29:34.606Z,100455.78
2023-04-09T14:32:04.695Z,100456.94
2023-04-09T14:34:34.743Z,100457.28
2023-04-09T14:37:04.117Z,100455.56
2023-04-09T14:39:35.313Z,100456.13
2023-04-09T14:42:05.098Z,100451.00
2023-04-09T14:44:34.758Z,100458.44
2023-04-09T14:47:04.177Z,100452.78
2023-04-09T14:49:33.610Z,100452.16
2023-04-09T14:52:03.436Z,100443.03
2023-04-09T14:54:34.782Z,100445.94
2023-04-09T14:57:05.481Z,100449.75
2023-04-09T14:59:34.920Z,100448.22
2023-04-09T15:02:04.544Z,100451.66
2023-04-09T15:04:34.053Z,100451.84
2023-04-09T15:07:03.205Z,100443.34
2023-04-09T15:09:33.051Z,100443.59
2023-04-09T15:12:09.467Z,100445.69
2023-04-09T15:14:38.862Z,100442.28
2023-04-09T15:17:08.440Z,100441.81
2023-04-09T15:19:38.101Z,100442.06
2023-04-09T15:22:07.551Z,100443.94
2023-04-09T15:24:36.865Z,100444.44
2023-04-09T15:27:07.781Z,100445.22
2023-04-09T15:29:36.926Z,100444.59
2023-04-09T15:32:06.309Z,100443.19
2023-04-09T15:34:35.626Z,100453.38
2023-04-09T15:37:05.248Z,100446.03
2023-04-09T15:39:35.254Z,100440.41
2023-04-09T15:42:04.851Z,100440.22
2023-04-09T15:44:36.469Z,100448.75
2023-04-09T15:47:06.104Z,100444.56
2023-04-09T15:49:37.004Z,100443.72
2023-04-09T15:52:07.571Z,100440.81
2023-04-09T15:54:36.776Z,100440.22
2023-04-09T15:57:06.418Z,100435.50
2023-04-09T15:59:37.235Z,100446.63
2023-04-09T16:02:06.718Z,100440.78
2023-04-09T16:04:36.417Z,100446.78
2023-04-09T16:07:06.024Z,100437.94
2023-04-09T16:09:35.956Z,100445.28
2023-04-09T16:12:06.188Z,100444.50
2023-04-09T16:14:37.046Z,100444.78
2023-04-09T16:17:06.301Z,100446.91
2023-04-09T16:19:38.785Z,100449.09
2023-04-09T16:22:08.701Z,100445.28
2023-04-09T16:24:37.987Z,100448.47
2023-04-09T16:27:07.283Z,100449.94
2023-04-09T16:29:40.199Z,100454.91
2023-04-09T16:32:09.625Z,100446.50
2023-04-09T16:34:39.474Z,100446.78
2023-04-09T16:37:09.115Z,100454.22
2023-04-09T16:39:38.611Z,100462.59
2023-04-09T16:42:08.185Z,100463.28
2023-04-09T16:44:38.817Z,100464.47
2023-04-09T16:47:08.475Z,100466.47
2023-04-09T16:49:37.585Z,100464.84
2023-04-09T16:52:06.823Z,100467.50
2023-04-09T16:54:36.195Z,100466.34
2023-04-09T16:57:05.528Z,100475.41
2023-04-09T16:59:34.860Z,100463.16
2023-04-09T17:02:05.499Z,100464.56
2023-04-09T17:04:34.901Z,100461.97
2023-04-09T17:07:04.196Z,100458.63
2023-04-09T17:09:33.427Z,100460.63
2023-04-09T17:12:02.806Z,100461.13
2023-04-09T17:14:32.008Z,100464.69
2023-04-09T17:17:01.688Z,100469.59
2023-04-09T17:19:32.584Z,100466.34
2023-04-09T17:22:01.843Z,100462.28
2023-04-09T17:24:40.082Z,100465.88
2023-04-09T17:27:12.932Z,100469.91
2023-04-09T17:29:42.425Z,100469.78
2023-04-09T17:32:14.607Z,100475.63
2023-04-09T17:34:48.728Z,100473.31
2023-04-09T17:37:18.112Z,100479.44
2023-04-09T17:39:48.065Z,100469.13
2023-04-09T17:42:19.907Z,100472.84
2023-04-09T17:44:49.174Z,100475.16
2023-04-09T17:47:18.206Z,100472.72
2023-04-09T17:49:48.791Z,100470.50
2023-04-09T17:52:18.065Z,100470.75
2023-04-09T17:54:47.449Z,100474.13
2023-04-09T17:57:16.630Z,100477.16
2023-04-09T17:59:49.604Z,100469.19
2023-04-09T18:02:22.003Z,100468.38
2023-04-09T18:04:53.310Z,100469.47
2023-04-09T18:07:22.768Z,100468.97
2023-04-09T18:09:52.105Z,100469.59
2023-04-09T18:12:21.370Z,100477.31
2023-04-09T18:14:50.762Z,100484.25
2023-04-09T18:17:20.048Z,100482.97
2023-04-09T18:19:49.842Z,100474.97
2023-04-09T18:22:20.332Z,100480.88
2023-04-09T18:24:49.585Z,100477.22
2023-04-09T18:27:18.876Z,100469.97
2023-04-09T18:29:49.349Z,100480.47
2023-04-09T18:32:19.874Z,100471.63
2023-04-09T18:34:49.268Z,100477.81
2023-04-09T18:37:20.040Z,100474.16
2023-04-09T18:39:49.209Z,100479.97
2023-04-09T18:42:18.411Z,100484.00
2023-04-09T18:44:47.566Z,100480.44
2023-04-09T18:47:17.884Z,100487.97
2023-04-09T18:49:47.595Z,100475.63
2023-04-09T18:52:20.392Z,100479.91
2023-04-09T18:54:49.559Z,100477.19
2023-04-09T18:57:20.534Z,100485.59
2023-04-09T18:59:51.869Z,100483.31
2023-04-09T19:02:22.219Z,100482.13
2023-04-09T19:04:51.835Z,100479.81
2023-04-09T19:07:22.542Z,100485.16
2023-04-09T19:09:52.803Z,100478.97
2023-04-09T19:12:24.202Z,100486.59
2023-04-09T19:14:55.887Z,100475.38
2023-04-09T19:17:30.215Z,100475.44
2023-04-09T19:20:05.042Z,100470.72
2023-04-09T19:27:23.126Z,100478.25
2023-04-09T19:29:54.313Z,100475.31
2023-04-09T19:32:28.052Z,100474.44
2023-04-09T19:35:11.282Z,100473.09
2023-04-09T19:37:41.924Z,100470.34
2023-04-09T19:40:12.744Z,100476.16
2023-04-09T19:42:46.925Z,100484.69
2023-04-09T19:45:16.353Z,100483.66
2023-04-09T19:47:46.167Z,100484.88
2023-04-09T19:50:15.854Z,100488.00
2023-04-09T19:52:46.309Z,100482.94
2023-04-09T19:55:16.013Z,100486.84
2023-04-09T19:57:48.083Z,100488.47
2023-04-09T20:00:17.553Z,100482.22
2023-04-09T20:02:48.132Z,100488.00
2023-04-09T20:05:21.149Z,100481.50
2023-04-09T20:07:53.998Z,100485.84
2023-04-09T20:10:24.968Z,100477.63
2023-04-09T20:12:58.060Z,100484.28
2023-04-09T20:15:27.420Z,100490.97
2023-04-09T20:17:57.021Z,100490.47
2023-04-09T20:20:27.973Z,100485.16
2023-04-09T20:22:58.144Z,100496.22
2023-04-09T20:25:35.689Z,100486.38
2023-04-09T20:28:08.525Z,100487.00
2023-04-09T20:30:37.909Z,100492.53
2023-04-09T20:33:07.032Z,100493.31
2023-04-09T20:35:38.403Z,100495.91
2023-04-09T20:38:07.981Z,100489.81
2023-04-09T20:40:42.811Z,100489.34
2023-04-09T20:43:14.092Z,100489.94
2023-04-09T20:45:44.067Z,100485.34
2023-04-09T20:48:15.032Z,100496.25
2023-04-09T20:50:44.384Z,100487.19
2023-04-09T20:53:14.147Z,100494.22
2023-04-09T20:55:43.671Z,100490.16
2023-04-09T20:58:14.891Z,100493.66
2023-04-09T21:00:44.749Z,100488.31
2023-04-09T21:03:16.247Z,100492.22
2023-04-09T21:05:47.344Z,100487.97
2023-04-09T21:08:16.811Z,100489.88
2023-04-09T21:10:47.172Z,100493.16
2023-04-09T21:13:18.774Z,100494.81
2023-04-09T21:15:59.300Z,100496.13
2023-04-09T21:18:29.217Z,100495.22
2023-04-09T21:20:59.924Z,100497.25
2023-04-09T21:23:30.158Z,100497.63
2023-04-09T21:26:01.422Z,100498.19
2023-04-09T21:28:32.834Z,100501.53
2023-04-09T21:31:12.040Z,100501.38
2023-04-09T21:33:41.806Z,100503.56
2023-04-09T21:36:11.478Z,100499.88
2023-04-09T21:38:40.974Z,100494.72
2023-04-09T21:41:12.920Z,100502.84
2023-04-09T21:43:43.721Z,100498.78
2023-04-09T21:46:20.296Z,100502.50
2023-04-09T21:48:49.973Z,100492.53
2023-04-09T21:51:21.574Z,100497.72
2023-04-09T21:53:53.201Z,100493.81
2023-04-09T21:56:24.061Z,100498.03
2023-04-09T21:58:56.438Z,100499.53
2023-04-09T22:01:29.411Z,100493.47
2023-04-09T22:04:03.767Z,100500.47
2023-04-09T22:06:34.989Z,100496.41
2023-04-09T22:09:04.735Z,100498.03
2023-04-09T22:11:41.949Z,100501.75
2023-04-09T22:14:17.024Z,100499.53
2023-04-09T22:16:51.693Z,100497.88
2023-04-09T22:19:21.044Z,100499.38
2023-04-09T22:21:50.847Z,100500.28
2023-04-09T22:24:27.173Z,100505.97
2023-04-09T22:26:59.284Z,100501.56
2023-04-09T22:29:32.139Z,100505.81
2023-04-09T22:32:05.027Z,100506.19
2023-04-09T22:34:38.199Z,100499.38
2023-04-09T22:37:07.849Z,100491.41
2023-04-09T22:39:43.646Z,100499.53
2023-04-09T22:42:13.106Z,100493.28
2023-04-09T22:44:47.473Z,100490.34
2023-04-09T22:47:17.072Z,100492.91
2023-04-09T22:49:46.928Z,100495.84
2023-04-09T22:52:17.733Z,100483.50
2023-04-09T22:54:51.515Z,100484.78
2023-04-09T22:57:34.544Z,100485.53
2023-04-09T23:00:06.022Z,100482.03
2023-04-09T23:02:42.114Z,100481.28
2023-04-09T23:05:12.700Z,100480.75
2023-04-09T23:07:45.119Z,100485.91
2023-04-09T23:10:16.850Z,100485.91
2023-04-09T23:12:46.573Z,100477.81
2023-04-09T23:15:17.704Z,100483.13
2023-04-09T23:17:47.068Z,100478.88
2023-04-09T23:20:18.299Z,100478.16
2023-04-09T23:22:56.200Z,100484.78
2023-04-09T23:25:25.506Z,100489.94
2023-04-09T23:27:54.629Z,100484.78
2023-04-09T23:30:26.341Z,100485.16
2023-04-09T23:32:57.783Z,100484.03
2023-04-09T23:35:29.346Z,100482.59
2023-04-09T23:37:59.683Z,100479.25
2023-04-09T23:40:28.786Z,100484.41
2023-04-09T23:42:57.986Z,100485.72
2023-04-09T23:45:28.565Z,100480.00
2023-04-09T23:47:57.859Z,100486.25
2023-04-09T23:50:28.914Z,100487.00
2023-04-09T23:53:03.864Z,100479.97
2023-04-09T23:55:34.295Z,100485.50
2023-04-09T23:58:03.702Z,100481.84
